Tiempo atmosférico en la estación meteorológica de Valverde del Fresno, Cáceres (498 m.)



Fecha
DESCASC
Temp. máxima en grados centígrados (hora)
DESCASC
Temp. mínima en grados centígrados (hora)
DESCASC
Temp. media en grados centígrados
DESCASC
Racha de viento máxima en m/sg (hora)
DESCASC
Velocidad máxima media en intervalos de 10 minutos(hora)
DESCASC
Precipitaciones diarias en mm
DESCASC
Precipitaciones de 00:00 a 06:00 en mm
DESCASC
Precipitaciones de 06:00 a 12:00 en mm
DESCASC
Precipitaciones de 12:00 a 18:00 en mm
DESCASC
Precipitaciones de 18:00 a 24:00 en mm
DESCASC
10-07-2020 36.1 (17:20) 18.9 (07:50) 27.5 8.06 (00:50) 4.72 (18:30) 0 0 0 0 0
09-07-2020 35.2 (18:40) 16.4 (07:00) 25.8 12.5 (01:10) 6.39 (00:20) 0 0 0 0 0
08-07-2020 34.6 (17:40) 19.3 (07:30) 26.9 9.72 (23:50) 6.39 (23:50) 0 0 0 0 0
07-07-2020 38.6 (18:00) 19.8 (07:50) 29.2 8.61 (18:10) 3.89 (17:10) 0 0 0 0 0
06-07-2020 39.2 (17:40) 25.1 (00:00) 32.2 11.11 (06:20) 6.94 (06:20) 0 0 0 0 0
05-07-2020 38.1 (18:00) 19.9 (00:00) 29 12.22 (02:00) 7.5 (02:10) 0 0 0 0 0
04-07-2020 35.4 (16:40) 21.5 (00:00) 28.5 12.78 (02:40) 7.5 (03:10) 0 0 0 0 0
03-07-2020 32.3 (18:10) 15.7 (06:50) 24 14.72 (05:10) 7.5 (05:30) 0.4 0 0 0.4 0
02-07-2020 30.5 (17:10) 18.1 (00:00) 24.3 13.06 (23:20) 7.22 (07:20) 0 0 0 0 0
01-07-2020 34.2 (16:00) 21.2 (00:00) 27.7 10.83 (23:59) 6.11 (23:40) 0 0 0 0 0
30-06-2020 35.7 (16:50) 19.4 (00:00) 27.6 9.17 (15:30) 5 (14:20) 0 0 0 0 0
29-06-2020 36 (17:20) 19.9 (00:00) 27.9 12.5 (00:40) 7.5 (00:40) 0 0 0 0 0
28-06-2020 33.1 (17:10) 19.1 (00:00) 26.1 13.33 (07:30) 8.61 (07:30) 0 0 0 0 0
27-06-2020 30.1 (16:30) 16.9 (00:00) 23.5 12.78 (22:30) 6.11 (23:30) 0 0 0 0 0
26-06-2020 29.5 (18:00) 13.4 (00:00) 21.4 9.44 (22:30) 5 (23:30) 0 0 0 0 0
25-06-2020 32.8 (16:50) 18.3 (00:00) 25.5 9.44 (15:20) 4.44 (22:50) 0 0 0 0 0
24-06-2020 34 (17:00) 21.4 (00:00) 27.7 8.61 (18:20) 4.72 (13:10) 0 0 0 0 0
23-06-2020 37.2 (17:10) 19.5 (00:00) 28.4 7.78 (16:50) 4.72 (16:50) 0 0 0 0 0
22-06-2020 36.1 (17:10) 20.7 (00:00) 28.4 14.72 (03:50) 7.22 (00:50) 0 0 0 0 0
21-06-2020 32.1 (18:20) 17.7 (00:00) 24.9 15 (07:30) 8.89 (07:00) 0 0 0 0 0
20-06-2020 31.6 (17:00) 16.7 (00:00) 24.2 9.72 (23:40) 5 (22:30) 0 0 0 0 0
19-06-2020 30 (17:40) 15.1 (00:00) 22.6 11.67 (01:30) 6.11 (01:30) 0 0 0 0 0
18-06-2020 28.3 (17:20) 14.8 (00:00) 21.5 11.94 (23:00) 6.67 (23:30) 0 0 0 0 0
17-06-2020 26.7 (17:20) 11.8 (00:00) 19.3 11.94 (16:30) 6.11 (22:50) 0 0 0 0 0
16-06-2020 25.3 (15:10) 14.3 (00:00) 19.8 11.39 (00:50) 6.11 (00:20) 0.4 0 0.4 0 0
15-06-2020 25.8 (17:20) 14 (00:00) 19.9 10.56 (00:10) 5.83 (21:20) 0 0 0 0 0
14-06-2020 24.8 (18:00) 11.2 (00:00) 18 11.67 (22:20) 5.83 (21:30) 0 0 0 0 0
13-06-2020 22.5 (15:30) 7.5 (00:00) 15 7.22 (15:30) 4.17 (15:30) 0 0 0 0 0
12-06-2020 20.3 (16:20) 8.2 (00:00) 14.2 11.67 (16:40) 6.39 (15:40) 0 0 0 0 0

Gráficas

Temp. máximas Temp. mínimas Temp. medias Precipitaciones Rachas de viento máximas Velocidades máximas media en intervalos de 10 minutos

Datos horarios

Fecha y hora oficial Temperatura (ºC) Velocidad del viento (km/h) Dirección del viento Racha (km/h) Dirección de racha Precipitación (mm) Presión (hPa) Tendencia (hPa) Humedad (%)
2020-07-11 23:00:00 24.7 12 Sudoeste 53 Norte 0 -- -- 46
2020-07-11 22:00:00 24.7 14 Nordeste 51 Norte 0 -- -- 49
2020-07-11 21:00:00 22.9 17 Noroeste 65 Oeste 0 -- -- 57
2020-07-11 20:00:00 34 11 Este 24 Este 0 -- -- 25
2020-07-11 19:00:00 36.4 15 Este 28 Este 0 -- -- 21
2020-07-11 18:00:00 37.3 6 Este 20 Este 0 -- -- 20
2020-07-11 17:00:00 37.9 10 Sur 23 Sudeste 0 -- -- 20
2020-07-11 16:00:00 37.1 14 Este 30 Sudeste 0 -- -- 20
2020-07-11 15:00:00 36.5 12 Sur 31 Sudeste 0 -- -- 24
2020-07-11 14:00:00 35.6 10 Este 23 Sudeste 0 -- -- 26
2020-07-11 13:00:00 34.7 11 Sudeste 23 Sudeste 0 -- -- 27
2020-07-11 12:00:00 32.7 6 Sur 11 Sur 0 -- -- 32
2020-07-11 11:00:00 30.8 5 Sur 11 Sudoeste 0 -- -- 34
2020-07-11 10:00:00 28.3 2 Norte 6 Sudeste 0 -- -- 40
2020-07-11 09:00:00 25.5 0 Calma 5 Este 0 -- -- 45
2020-07-11 08:00:00 21.7 3 Este 10 Sur 0 -- -- 54
2020-07-11 07:00:00 22.4 5 Norte 10 Norte 0 -- -- 48
2020-07-11 06:00:00 21.8 4 Norte 12 Norte 0 -- -- 51
2020-07-11 05:00:00 23.9 3 Noroeste 5 Sudoeste 0 -- -- 47
2020-07-11 04:00:00 25.6 4 Sudeste 30 Nordeste 0 -- -- 45
2020-07-11 03:00:00 26.7 9 Nordeste 24 Nordeste 0 -- -- 43
2020-07-11 02:00:00 28.2 10 Norte 26 Norte 0 -- -- 40
2020-07-11 01:00:00 27.6 8 Noroeste 14 Noroeste 0 -- -- 36
2020-07-11 00:00:00 26.7 5 Oeste 8 Oeste 0 -- -- 36
2020-07-10 23:00:00 28.5 3 Oeste 9 Norte 0 -- -- 34
2020-07-10 22:00:00 29.6 2 Norte 12 Noroeste 0 -- -- 33
2020-07-10 21:00:00 33.7 4 Norte 15 Norte 0 -- -- 26
2020-07-10 20:00:00 35.3 9 Norte 27 Este 0 -- -- 23
2020-07-10 19:00:00 35.8 13 Nordeste 24 Nordeste 0 -- -- 23
2020-07-10 18:00:00 36.1 11 Nordeste 27 Nordeste 0 -- -- 23
2020-07-10 17:00:00 35.6 13 Nordeste 24 Nordeste 0 -- -- 22
2020-07-10 16:00:00 35.1 9 Nordeste 22 Nordeste 0 -- -- 24
2020-07-10 15:00:00 34.8 11 Nordeste 26 Nordeste 0 -- -- 26
2020-07-10 14:00:00 33.7 10 Este 20 Este 0 -- -- 32
2020-07-10 13:00:00 32 9 Sudeste 17 Este 0 -- -- 35
2020-07-10 12:00:00 29.8 5 Oeste 14 Sudeste 0 -- -- 37
2020-07-10 11:00:00 28.5 4 Sur 10 Sur 0 -- -- 39
2020-07-10 10:00:00 26.4 4 Sudeste 7 Sur 0 -- -- 43
2020-07-10 09:00:00 23.7 4 Este 6 Este 0 -- -- 56
2020-07-10 08:00:00 19.6 3 Este 8 Nordeste 0 -- -- 67
2020-07-10 07:00:00 20.3 5 Oeste 9 Nordeste 0 -- -- 63
2020-07-10 06:00:00 22.3 2 Sudoeste 17 Norte 0 -- -- 57
2020-07-10 05:00:00 22.4 5 Nordeste 14 Norte 0 -- -- 59
2020-07-10 04:00:00 23.9 9 Norte 16 Norte 0 -- -- 56
2020-07-10 03:00:00 25.2 3 Noroeste 23 Nordeste 0 -- -- 53
2020-07-10 02:00:00 26.7 12 Norte 25 Noroeste 0 -- -- 49
2020-07-10 01:00:00 27.5 5 Norte 29 Norte 0 -- -- 45
2020-07-10 00:00:00 26.9 16 Norte 28 Norte 0 -- -- 49
2020-07-09 23:00:00 28 12 Norte 25 Norte 0 -- -- 45
2020-07-09 22:00:00 29.1 4 Norte 13 Noroeste 0 -- -- 33
2020-07-09 21:00:00 33.2 4 Noroeste 15 Oeste 0 -- -- 22
2020-07-09 20:00:00 34.9 5 Oeste 24 Sudoeste 0 -- -- 17
2020-07-09 19:00:00 34.9 6 Sur 23 Sur 0 -- -- 18
2020-07-09 18:00:00 34.7 9 Sudoeste 21 Sudoeste 0 -- -- 17
2020-07-09 17:00:00 34.7 6 Oeste 19 Sudeste 0 -- -- 16
2020-07-09 16:00:00 33.6 5 Sur 19 Sur 0 -- -- 17
2020-07-09 15:00:00 32.7 6 Sur 20 Sur 0 -- -- 25
2020-07-09 14:00:00 31.7 13 Sur 23 Sudeste 0 -- -- 26
2020-07-09 13:00:00 30.1 4 Sur 17 Este 0.2 -- -- 30
2020-07-09 12:00:00 28 6 Nordeste 14 Este 0 -- -- 41
2020-07-09 11:00:00 26.3 4 Sudeste 10 Sur 0 -- -- 46
2020-07-09 10:00:00 23.5 4 Sur 7 Sur 0 -- -- 54
2020-07-09 09:00:00 20.3 5 Este 7 Este 0 -- -- 62
2020-07-09 08:00:00 17.8 0 Calma 10 Oeste 0 -- -- 68
2020-07-09 07:00:00 16.4 6 Oeste 12 Sur 0 -- -- 67
2020-07-09 06:00:00 18.2 6 Norte 10 Norte 0 -- -- 60
2020-07-09 05:00:00 19.9 4 Norte 8 Norte 0 -- -- 54
2020-07-09 04:00:00 21.4 7 Oeste 18 Nordeste 0 -- -- 50
2020-07-09 03:00:00 24.8 12 Nordeste 40 Nordeste 0 -- -- 41
2020-07-09 02:00:00 25 8 Oeste 45 Norte 0 -- -- 42
2020-07-09 01:00:00 26.1 20 Norte 42 Norte 0 -- -- 39
2020-07-09 00:00:00 25.3 19 Norte 35 Norte 0 -- -- 48
2020-07-08 23:00:00 26.1 15 Norte 24 Noroeste 0 -- -- 41
2020-07-08 22:00:00 25.6 10 Norte 13 Norte 0 -- -- 30
2020-07-08 21:00:00 31.6 8 Sudoeste 21 Sudoeste 0 -- -- 18
2020-07-08 20:00:00 33.5 10 Sudoeste 20 Sudoeste 0 -- -- 13
2020-07-08 19:00:00 33.7 13 Sudoeste 25 Sudoeste 0 -- -- 14
2020-07-08 18:00:00 34.4 11 Sudoeste 30 Oeste 0 -- -- 17
2020-07-08 17:00:00 34.2 8 Sur 23 Sudoeste 0 -- -- 17
2020-07-08 16:00:00 33.8 13 Sudoeste 26 Sur 0 -- -- 18
2020-07-08 15:00:00 33.6 10 Sur 30 Sur 0 -- -- 20
2020-07-08 14:00:00 32.9 10 Sudeste 19 Sudeste 0 -- -- 21
2020-07-08 13:00:00 31.6 7 Sur 20 Sudeste 0 -- -- 26
2020-07-08 12:00:00 30.6 12 Sudeste 22 Sudeste 0 -- -- 27
2020-07-08 11:00:00 28.5 4 Sur 12 Sur 0 -- -- 37
2020-07-08 10:00:00 25.9 5 Sur 8 Sudoeste 0 -- -- 45
2020-07-08 09:00:00 23.3 0 Calma 10 Norte 0 -- -- 53
2020-07-08 08:00:00 20.4 5 Norte 8 Norte 0 -- -- 58
2020-07-08 07:00:00 20.2 5 Norte 8 Norte 0 -- -- 58
2020-07-08 06:00:00 21.5 5 Oeste 8 Norte 0 -- -- 52
2020-07-08 05:00:00 23.3 0 Calma 10 Norte 0 -- -- 47
2020-07-08 04:00:00 22.5 2 Nordeste 7 Nordeste 0 -- -- 49
2020-07-08 03:00:00 23.7 2 Oeste 8 Norte 0 -- -- 45
2020-07-08 02:00:00 24.6 2 Norte 14 Norte 0 -- -- 42
2020-07-08 01:00:00 26.1 2 Nordeste 13 Norte 0 -- -- 36
2020-07-08 00:00:00 26.6 9 Norte 14 Norte 0 -- -- 34
2020-07-07 23:00:00 27.6 7 Norte 13 Norte 0 -- -- 32
2020-07-07 22:00:00 31.5 4 Noroeste 14 Oeste 0 -- -- 27
2020-07-07 21:00:00 35.6 7 Sudoeste 17 Sudoeste 0 -- -- 20
2020-07-07 20:00:00 37.4 9 Sudoeste 23 Sudoeste 0 -- -- 17
2020-07-07 19:00:00 38.1 12 Sudoeste 31 Oeste 0 -- -- 16
2020-07-07 18:00:00 38.6 10 Sudoeste 27 Sudoeste 0 -- -- 16
2020-07-07 17:00:00 38.1 13 Sudoeste 27 Sudoeste 0 -- -- 15
2020-07-07 16:00:00 38 13 Oeste 22 Sur 0 -- -- 13
2020-07-07 15:00:00 36.5 9 Sur 21 Sudeste 0 -- -- 19
2020-07-07 14:00:00 34.9 8 Sudeste 22 Sudeste 0 -- -- 23
2020-07-07 13:00:00 33.4 9 Sur 24 Sudeste 0 -- -- 28
2020-07-07 12:00:00 32.7 9 Sudeste 19 Este 0 -- -- 32
2020-07-07 11:00:00 31 8 Sur 14 Sudeste 0 -- -- 35
2020-07-07 10:00:00 29.7 3 Este 8 Norte 0 -- -- 37
2020-07-07 09:00:00 25.8 2 Nordeste 8 Nordeste 0 -- -- 46
2020-07-07 08:00:00 19.9 6 Nordeste 9 Este 0 -- -- 60
2020-07-07 07:00:00 21.1 6 Oeste 10 Oeste 0 -- -- 54
2020-07-07 06:00:00 22 6 Norte 7 Norte 0 -- -- 50
2020-07-07 05:00:00 23.2 3 Nordeste 13 Norte 0 -- -- 45
2020-07-07 04:00:00 25.4 7 Norte 12 Norte 0 -- -- 38
2020-07-07 03:00:00 24.8 7 Nordeste 12 Norte 0 -- -- 44
2020-07-07 02:00:00 24 4 Noroeste 10 Norte 0 -- -- 48
2020-07-07 01:00:00 25.7 3 Este 12 Norte 0 -- -- 44
2020-07-07 00:00:00 28.5 7 Norte 12 Noroeste 0 -- -- 38
2020-07-06 23:00:00 29.8 6 Noroeste 17 Nordeste 0 -- -- 36
2020-07-06 22:00:00 31.4 9 Norte 18 Norte 0 -- -- 33
2020-07-06 21:00:00 35.3 7 Norte 10 Norte 0 -- -- 27
2020-07-06 20:00:00 38.2 7 Noroeste 22 Oeste 0 -- -- 18
2020-07-06 19:00:00 38.9 13 Oeste 25 Sudoeste 0 -- -- 16
2020-07-06 18:00:00 38.9 14 Sudoeste 25 Sur 0 -- -- 17
2020-07-06 17:00:00 38.9 6 Este 26 Sudoeste 0 -- -- 17
2020-07-06 16:00:00 38.1 15 Sudoeste 27 Sudoeste 0 -- -- 19
2020-07-06 15:00:00 37.9 8 Este 21 Este 0 -- -- 23
2020-07-06 14:00:00 36.8 6 Sudeste 22 Oeste 0 -- -- 24
2020-07-06 13:00:00 36.1 8 Sudeste 17 Sudoeste 0 -- -- 24
2020-07-06 12:00:00 34.1 8 Sudoeste 18 Sur 0 -- -- 31
2020-07-06 11:00:00 33.3 8 Sur 12 Sur 0 -- -- 31
2020-07-06 10:00:00 31 2 Sur 7 Este 0 -- -- 37
2020-07-06 09:00:00 28.4 3 Nordeste 9 Norte 0 -- -- 45
2020-07-06 08:00:00 25.4 4 Oeste 14 Nordeste 0 -- -- 48
2020-07-06 07:00:00 26.7 12 Nordeste 40 Nordeste 0 -- -- 44
2020-07-06 06:00:00 26.7 4 Noroeste 12 Sudeste 0 -- -- 45
2020-07-06 05:00:00 27.7 8 Nordeste 27 Norte 0 -- -- 42
2020-07-06 04:00:00 28.1 13 Norte 31 Norte 0 -- -- 39
2020-07-06 03:00:00 28 15 Norte 37 Noroeste 0 -- -- 39
2020-07-06 02:00:00 28.3 19 Norte 36 Norte 0 -- -- 37
2020-07-06 01:00:00 29.1 20 Norte 36 Norte 0 -- -- 33
2020-07-06 00:00:00 29 14 Norte 23 Norte 0 -- -- 35
2020-07-05 23:00:00 28.2 0 Calma 7 Nordeste 0 -- -- 27
2020-07-05 22:00:00 28.6 6 Norte 12 Norte 0 -- -- 30
2020-07-05 21:00:00 34.2 6 Noroeste 18 Noroeste 0 -- -- 20
2020-07-05 20:00:00 36.7 10 Noroeste 20 Noroeste 0 -- -- 17
2020-07-05 19:00:00 37.3 5 Norte 20 Sudoeste 0 -- -- 16
2020-07-05 18:00:00 38.1 9 Sudoeste 24 Oeste 0 -- -- 15
2020-07-05 17:00:00 37.7 10 Sudeste 22 Sur 0 -- -- 14
2020-07-05 16:00:00 36.8 6 Nordeste 24 Sur 0 -- -- 16
2020-07-05 15:00:00 36.8 6 Este 22 Sudeste 0 -- -- 16
2020-07-05 14:00:00 35.9 8 Sur 16 Sur 0 -- -- 17
2020-07-05 13:00:00 34.4 6 Sur 13 Nordeste 0 -- -- 20
2020-07-05 12:00:00 33.1 6 Sudeste 18 Sur 0 -- -- 21
2020-07-05 11:00:00 31 6 Sudeste 11 Sudeste 0 -- -- 23
2020-07-05 10:00:00 28.7 5 Sudeste 9 Este 0 -- -- 28
2020-07-05 09:00:00 24.1 5 Este 10 Este 0 -- -- 35
2020-07-05 08:00:00 21.4 4 Norte 12 Norte 0 -- -- 37
2020-07-05 07:00:00 21.5 8 Norte 10 Norte 0 -- -- 34
2020-07-05 06:00:00 23.7 0 Calma 10 Nordeste 0 -- -- 30
2020-07-05 05:00:00 26.9 8 Nordeste 21 Este 0 -- -- 25
2020-07-05 04:00:00 26.7 10 Nordeste 30 Nordeste 0 -- -- 25
2020-07-05 03:00:00 29 17 Nordeste 41 Nordeste 0 -- -- 21
2020-07-05 02:00:00 29.1 26 Nordeste 44 Nordeste 0 -- -- 22
2020-07-05 01:00:00 29 25 Nordeste 43 Nordeste 0 -- -- 21
2020-07-05 00:00:00 29.4 23 Nordeste 40 Nordeste 0 -- -- 21
2020-07-04 23:00:00 29 13 Nordeste 26 Nordeste 0 -- -- 22
2020-07-04 22:00:00 27.9 7 Norte 14 Norte 0 -- -- 28
2020-07-04 21:00:00 32.7 7 Norte 18 Norte 0 -- -- 21
2020-07-04 20:00:00 34.4 10 Nordeste 22 Nordeste 0 -- -- 18
2020-07-04 19:00:00 35 8 Nordeste 25 Nordeste 0 -- -- 20
2020-07-04 18:00:00 35.4 8 Este 20 Nordeste 0 -- -- 19
2020-07-04 17:00:00 34.9 6 Norte 28 Sur 0 -- -- 20
2020-07-04 16:00:00 34.2 12 Sur 23 Sudeste 0 -- -- 20
2020-07-04 15:00:00 33.2 6 Nordeste 19 Nordeste 0 -- -- 21
2020-07-04 14:00:00 33 7 Este 21 Este 0 -- -- 21
2020-07-04 13:00:00 31.7 5 Nordeste 19 Sudeste 0 -- -- 23
2020-07-04 12:00:00 30.7 8 Sur 17 Sudoeste 0 -- -- 24
2020-07-04 11:00:00 29.5 5 Norte 14 Sur 0 -- -- 26
2020-07-04 10:00:00 26.8 6 Oeste 9 Oeste 0 -- -- 29
2020-07-04 09:00:00 23.9 5 Sudoeste 15 Nordeste 0 -- -- 36
2020-07-04 08:00:00 23.7 13 Nordeste 24 Nordeste 0 -- -- 32
2020-07-04 07:00:00 21.9 5 Norte 18 Nordeste 0 -- -- 34
2020-07-04 06:00:00 22 8 Nordeste 17 Nordeste 0 -- -- 37
2020-07-04 05:00:00 22.3 7 Sudoeste 32 Norte 0 -- -- 38
2020-07-04 04:00:00 22.2 18 Norte 44 Norte 0 -- -- 43
2020-07-04 03:00:00 22.8 23 Norte 46 Norte 0 -- -- 45
2020-07-04 02:00:00 23.2 22 Norte 44 Norte 0 -- -- 45
2020-07-04 01:00:00 24.1 21 Norte 40 Norte 0 -- -- 39
2020-07-04 00:00:00 25 18 Norte 36 Norte 0 -- -- 30
2020-07-03 23:00:00 25.8 18 Norte 31 Norte 0 -- -- 27
2020-07-03 22:00:00 26.6 14 Norte 22 Norte 0 -- -- 28
2020-07-03 21:00:00 29.3 9 Norte 20 Norte 0 -- -- 25
2020-07-03 20:00:00 31.5 10 Norte 24 Norte 0 -- -- 22
2020-07-03 19:00:00 32 11 Nordeste 24 Nordeste 0 -- -- 20
2020-07-03 18:00:00 32.2 9 Nordeste 21 Nordeste 0 -- -- 17
2020-07-03 17:00:00 31.8 8 Nordeste 22 Nordeste 0 -- -- 22
2020-07-03 16:00:00 31.1 5 Este 21 Este 0 -- -- 25
2020-07-03 15:00:00 29.8 4 Sur 22 Este 0 -- -- 27
2020-07-03 14:00:00 28.8 7 Nordeste 17 Este 0 -- -- 28
2020-07-03 13:00:00 27.2 7 Nordeste 17 Sudeste 0.4 -- -- 28
2020-07-03 12:00:00 25.6 4 Este 17 Nordeste 0 -- -- 37
2020-07-03 11:00:00 23.6 9 Nordeste 32 Nordeste 0 -- -- 43
2020-07-03 10:00:00 21.5 21 Nordeste 39 Nordeste 0 -- -- 50
2020-07-03 09:00:00 18.6 16 Nordeste 41 Nordeste 0 -- -- 56
2020-07-03 08:00:00 17 13 Norte 39 Nordeste 0 -- -- 60
2020-07-03 07:00:00 16 21 Nordeste 41 Norte 0 -- -- 60
2020-07-03 06:00:00 16.3 21 Nordeste 53 Nordeste 0 -- -- 57
2020-07-03 05:00:00 16.9 23 Norte 42 Nordeste 0 -- -- 55
2020-07-03 04:00:00 16.7 17 Norte 35 Nordeste 0 -- -- 58
2020-07-03 03:00:00 17 17 Norte 40 Norte 0 -- -- 60
2020-07-03 02:00:00 17.6 21 Norte 45 Norte 0 -- -- 61
2020-07-03 01:00:00 18.3 19 Norte 44 Norte 0 -- -- 58
2020-07-03 00:00:00 19.2 22 Norte 47 Norte 0 -- -- 54
2020-07-02 23:00:00 20.2 21 Norte 46 Norte 0 -- -- 51
2020-07-02 22:00:00 21.8 14 Norte 40 Norte 0 -- -- 43
2020-07-02 21:00:00 24.3 18 Norte 38 Norte 0 -- -- 36
2020-07-02 20:00:00 26.9 17 Norte 31 Norte 0 -- -- 32
2020-07-02 19:00:00 28.4 17 Noroeste 30 Noroeste 0 -- -- 33
2020-07-02 18:00:00 29.9 8 Norte 20 Noroeste 0 -- -- 31
2020-07-02 17:00:00 30.2 8 Nordeste 23 Noroeste 0 -- -- 31
2020-07-02 16:00:00 29.4 8 Noroeste 22 Oeste 0 -- -- 33
2020-07-02 15:00:00 28.9 9 Noroeste 24 Noroeste 0 -- -- 33
2020-07-02 14:00:00 27.5 10 Norte 24 Noroeste 0 -- -- 37
2020-07-02 13:00:00 27.2 14 Noroeste 27 Noroeste 0 -- -- 38
2020-07-02 12:00:00 26.1 7 Norte 24 Norte 0 -- -- 44
2020-07-02 11:00:00 24.8 13 Norte 30 Nordeste 0 -- -- 50
2020-07-02 10:00:00 22.8 19 Nordeste 41 Nordeste 0 -- -- 54
2020-07-02 09:00:00 20.4 21 Nordeste 39 Nordeste 0 -- -- 64
2020-07-02 08:00:00 19.1 20 Norte 42 Nordeste 0 -- -- 70
2020-07-02 07:00:00 18.3 22 Nordeste 40 Nordeste 0 -- -- 73
2020-07-02 06:00:00 19.1 21 Nordeste 37 Este 0 -- -- 69
2020-07-02 05:00:00 19.5 10 Nordeste 36 Norte 0 -- -- 67
2020-07-02 04:00:00 19.8 9 Norte 23 Norte 0 -- -- 65
2020-07-02 03:00:00 20.7 9 Norte 30 Norte 0 -- -- 58
2020-07-02 02:00:00 21.3 15 Norte 31 Norte 0 -- -- 60
2020-07-02 01:00:00 22 14 Norte 37 Norte 0 -- -- 58
2020-07-02 00:00:00 23 18 Norte 39 Norte 0 -- -- 56
2020-07-01 23:00:00 24.1 15 Norte 32 Norte 0 -- -- 55
2020-07-01 22:00:00 26 12 Noroeste 24 Nordeste 0 -- -- 49
2020-07-01 21:00:00 29.3 8 Noroeste 26 Oeste 0 -- -- 38
2020-07-01 20:00:00 32.1 14 Oeste 29 Oeste 0 -- -- 24
2020-07-01 19:00:00 33.8 12 Oeste 32 Oeste 0 -- -- 24
2020-07-01 18:00:00 34.2 12 Oeste 35 Sudoeste 0 -- -- 23
2020-07-01 17:00:00 34 11 Oeste 28 Oeste 0 -- -- 25
2020-07-01 16:00:00 34.2 10 Oeste 22 Sudoeste 0 -- -- 26
2020-07-01 15:00:00 32.7 11 Oeste 26 Oeste 0 -- -- 27
2020-07-01 14:00:00 32.1 10 Norte 21 Norte 0 -- -- 29
2020-07-01 13:00:00 31 9 Noroeste 26 Noroeste 0 -- -- 29
2020-07-01 12:00:00 29.7 6 Norte 16 Norte 0 -- -- 40
2020-07-01 11:00:00 28 6 Sur 14 Sur 0 -- -- 47
2020-07-01 10:00:00 26.5 5 Sur 17 Nordeste 0 -- -- 55
2020-07-01 09:00:00 24.5 10 Nordeste 29 Norte 0 -- -- 60
2020-07-01 08:00:00 22.3 14 Norte 31 Nordeste 0 -- -- 66
2020-07-01 07:00:00 21.6 10 Norte 22 Norte 0 -- -- 64
2020-07-01 06:00:00 22.1 4 Nordeste 26 Nordeste 0 -- -- 59
2020-07-01 05:00:00 22.2 7 Nordeste 21 Nordeste 0 -- -- 57
2020-07-01 04:00:00 23.2 8 Norte 24 Nordeste 0 -- -- 53
2020-07-01 03:00:00 23.3 8 Nordeste 21 Nordeste 0 -- -- 53
2020-07-01 02:00:00 23.1 9 Nordeste 22 Norte 0 -- -- 55
2020-07-01 01:00:00 21.7 8 Norte 13 Noroeste 0 -- -- 51
2020-07-01 00:00:00 22.8 9 Noroeste 14 Norte 0 -- -- 53
2020-06-30 23:00:00 24.6 8 Norte 12 Oeste 0 -- -- 53
2020-06-30 22:00:00 28.5 6 Oeste 31 Sudoeste 0 -- -- 43
2020-06-30 21:00:00 31.3 14 Oeste 27 Sudoeste 0 -- -- 29
2020-06-30 20:00:00 33.5 13 Sudoeste 31 Sudoeste 0 -- -- 23
2020-06-30 19:00:00 34.8 13 Sudoeste 28 Oeste 0 -- -- 19
2020-06-30 18:00:00 35.6 15 Sudoeste 31 Sudoeste 0 -- -- 19
2020-06-30 17:00:00 35.6 12 Sudoeste 32 Sudoeste 0 -- -- 20
2020-06-30 16:00:00 35.3 13 Sudoeste 33 Sudoeste 0 -- -- 21
2020-06-30 15:00:00 34.7 17 Sudoeste 33 Sudoeste 0 -- -- 23
2020-06-30 14:00:00 34.7 14 Sur 27 Sur 0 -- -- 24
2020-06-30 13:00:00 33.7 9 Sur 22 Sudoeste 0 -- -- 27
2020-06-30 12:00:00 32.7 9 Sur 15 Sur 0 -- -- 31
2020-06-30 11:00:00 31.2 4 Sur 12 Sur 0 -- -- 34
2020-06-30 10:00:00 29.1 4 Este 6 Este 0 -- -- 38
2020-06-30 09:00:00 24.8 2 Nordeste 6 Norte 0 -- -- 51
2020-06-30 08:00:00 20.4 3 Nordeste 9 Oeste 0 -- -- 62
2020-06-30 07:00:00 19.4 5 Nordeste 10 Norte 0 -- -- 63
2020-06-30 06:00:00 21.6 0 Calma 4 Norte 0 -- -- 55
2020-06-30 05:00:00 23.8 0 Calma 10 Este 0 -- -- 47
2020-06-30 04:00:00 26.3 5 Nordeste 25 Este 0 -- -- 41
2020-06-30 03:00:00 27.3 15 Nordeste 27 Nordeste 0 -- -- 38
2020-06-30 02:00:00 26.6 6 Nordeste 24 Norte 0 -- -- 43
2020-06-30 01:00:00 26.7 13 Norte 30 Norte 0 -- -- 48
2020-06-30 00:00:00 27.1 17 Norte 31 Norte 0 -- -- 50
2020-06-29 23:00:00 27.7 17 Norte 26 Norte 0 -- -- 47
2020-06-29 22:00:00 27 12 Norte 16 Norte 0 -- -- 40
2020-06-29 21:00:00 33.9 4 Oeste 13 Sudoeste 0 -- -- 25
2020-06-29 20:00:00 35.1 6 Sur 18 Sudoeste 0 -- -- 22
2020-06-29 19:00:00 35.4 9 Sur 18 Sur 0 -- -- 21
2020-06-29 18:00:00 36 5 Oeste 19 Sudoeste 0 -- -- 21
2020-06-29 17:00:00 35.4 8 Sur 25 Sudoeste 0 -- -- 23
2020-06-29 16:00:00 34.4 12 Sudoeste 22 Sudoeste 0 -- -- 26
2020-06-29 15:00:00 33.7 8 Sudoeste 18 Sudoeste 0 -- -- 27
2020-06-29 14:00:00 32.9 5 Sudeste 17 Sudeste 0 -- -- 31
2020-06-29 13:00:00 31.3 6 Sur 15 Sudeste 0 -- -- 35
2020-06-29 12:00:00 30.2 6 Sudeste 17 Sudeste 0 -- -- 39
2020-06-29 11:00:00 29 5 Sudeste 15 Nordeste 0 -- -- 42
2020-06-29 10:00:00 27.1 12 Nordeste 18 Nordeste 0 -- -- 47
2020-06-29 09:00:00 25.1 6 Nordeste 18 Este 0 -- -- 51
2020-06-29 08:00:00 22.2 10 Nordeste 28 Este 0 -- -- 59
2020-06-29 07:00:00 21.2 12 Norte 26 Nordeste 0 -- -- 61
2020-06-29 06:00:00 20.1 4 Norte 27 Norte 0 -- -- 65
2020-06-29 05:00:00 20.9 6 Norte 27 Nordeste 0 -- -- 63
2020-06-29 04:00:00 21.2 5 Norte 19 Norte 0 -- -- 63
2020-06-29 03:00:00 21.8 9 Norte 35 Norte 0 -- -- 63
2020-06-29 02:00:00 22.4 18 Norte 40 Norte 0 -- -- 62
2020-06-29 01:00:00 22.7 20 Norte 45 Norte 0 -- -- 60
2020-06-29 00:00:00 23.8 23 Norte 44 Noroeste 0 -- -- 57
2020-06-28 23:00:00 25.1 22 Norte 40 Norte 0 -- -- 54
2020-06-28 22:00:00 26.6 19 Norte 34 Noroeste 0 -- -- 50
2020-06-28 21:00:00 29 12 Norte 29 Norte 0 -- -- 42
2020-06-28 20:00:00 31.2 13 Norte 25 Norte 0 -- -- 37
2020-06-28 19:00:00 32.2 12 Noroeste 26 Norte 0 -- -- 35
2020-06-28 18:00:00 32.9 8 Norte 23 Noroeste 0 -- -- 33
2020-06-28 17:00:00 32.7 8 Norte 27 Noroeste 0 -- -- 33
2020-06-28 16:00:00 32.6 5 Nordeste 22 Nordeste 0 -- -- 32
2020-06-28 15:00:00 31.9 8 Nordeste 24 Norte 0 -- -- 34
2020-06-28 14:00:00 30.3 12 Norte 27 Norte 0 -- -- 38
2020-06-28 13:00:00 28.8 14 Norte 31 Norte 0 -- -- 41
2020-06-28 12:00:00 27 14 Norte 38 Nordeste 0 -- -- 45
2020-06-28 11:00:00 25.5 17 Nordeste 36 Norte 0 -- -- 53
2020-06-28 10:00:00 24 18 Nordeste 37 Nordeste 0 -- -- 56
2020-06-28 09:00:00 23 11 Nordeste 36 Nordeste 0 -- -- 58
2020-06-28 08:00:00 20.4 19 Nordeste 48 Nordeste 0 -- -- 66
2020-06-28 07:00:00 19.2 28 Nordeste 45 Nordeste 0 -- -- 72
2020-06-28 06:00:00 19.8 23 Nordeste 45 Nordeste 0 -- -- 68
2020-06-28 05:00:00 19.8 20 Nordeste 42 Nordeste 0 -- -- 69
2020-06-28 04:00:00 19.9 22 Nordeste 35 Nordeste 0 -- -- 68
2020-06-28 03:00:00 20 10 Nordeste 35 Noroeste 0 -- -- 67
2020-06-28 02:00:00 20.5 15 Norte 41 Norte 0 -- -- 66
2020-06-28 01:00:00 20.8 23 Norte 47 Norte 0 -- -- 68
2020-06-28 00:00:00 21.6 19 Norte 45 Norte 0 -- -- 66
2020-06-27 23:00:00 22.4 17 Norte 46 Norte 0 -- -- 61
2020-06-27 22:00:00 23.6 14 Norte 29 Norte 0 -- -- 54
2020-06-27 21:00:00 25.5 15 Norte 33 Noroeste 0 -- -- 47
2020-06-27 20:00:00 27.7 13 Norte 30 Norte 0 -- -- 44
2020-06-27 19:00:00 28.6 15 Norte 31 Norte 0 -- -- 42
2020-06-27 18:00:00 29.7 14 Norte 28 Noroeste 0 -- -- 40
2020-06-27 17:00:00 29.3 10 Noroeste 20 Norte 0 -- -- 40
2020-06-27 16:00:00 29.1 8 Norte 24 Oeste 0 -- -- 40
2020-06-27 15:00:00 28.2 8 Nordeste 22 Norte 0 -- -- 40
2020-06-27 14:00:00 28 7 Nordeste 21 Noroeste 0 -- -- 40
2020-06-27 13:00:00 26.8 9 Norte 17 Nordeste 0 -- -- 44
2020-06-27 12:00:00 25.1 8 Nordeste 23 Nordeste 0 -- -- 47
2020-06-27 11:00:00 22.9 12 Norte 28 Noroeste 0 -- -- 55
2020-06-27 10:00:00 22 13 Nordeste 40 Nordeste 0 -- -- 58
2020-06-27 09:00:00 19.6 16 Norte 29 Norte 0 -- -- 65
2020-06-27 08:00:00 18.2 10 Norte 23 Norte 0 -- -- 69
2020-06-27 07:00:00 17.3 10 Este 27 Nordeste 0 -- -- 70
2020-06-27 06:00:00 17.6 2 Nordeste 20 Nordeste 0 -- -- 69
2020-06-27 05:00:00 18.2 10 Nordeste 35 Nordeste 0 -- -- 68
2020-06-27 04:00:00 18.6 13 Nordeste 28 Nordeste 0 -- -- 65
2020-06-27 03:00:00 19.2 14 Nordeste 34 Nordeste 0 -- -- 62
2020-06-27 02:00:00 19.6 15 Nordeste 31 Norte 0 -- -- 61
2020-06-27 01:00:00 20.1 10 Nordeste 28 Norte 0 -- -- 59
2020-06-27 00:00:00 20.4 17 Norte 32 Noroeste 0 -- -- 59
2020-06-26 23:00:00 21 17 Norte 34 Norte 0 -- -- 58
2020-06-26 22:00:00 22.8 13 Norte 32 Norte 0 -- -- 53
2020-06-26 21:00:00 25.4 11 Noroeste 25 Noroeste 0 -- -- 44
2020-06-26 20:00:00 27.9 13 Norte 22 Norte 0 -- -- 34
2020-06-26 19:00:00 29.2 6 Norte 25 Noroeste 0 -- -- 31
2020-06-26 18:00:00 29.5 10 Oeste 27 Oeste 0 -- -- 30
2020-06-26 17:00:00 28.7 17 Oeste 31 Sudoeste 0 -- -- 29
2020-06-26 16:00:00 28.5 14 Sudoeste 27 Sudoeste 0 -- -- 32
2020-06-26 15:00:00 28.3 5 Sur 26 Sudeste 0 -- -- 33
2020-06-26 14:00:00 27.3 9 Sudeste 23 Sur 0 -- -- 35
2020-06-26 13:00:00 25.4 8 Sudeste 19 Sur 0 -- -- 39
2020-06-26 12:00:00 24 9 Sur 15 Sudoeste 0 -- -- 41
2020-06-26 11:00:00 22.4 5 Sudoeste 13 Sur 0 -- -- 48
2020-06-26 10:00:00 19.9 6 Sudoeste 10 Sudoeste 0 -- -- 54
2020-06-26 09:00:00 18.2 8 Este 12 Nordeste 0 -- -- 61
2020-06-26 08:00:00 14.8 4 Sudoeste 7 Sudoeste 0 -- -- 68
2020-06-26 07:00:00 13.8 2 Norte 6 Norte 0 -- -- 65
2020-06-26 06:00:00 15.9 5 Oeste 6 Oeste 0 -- -- 58
2020-06-26 05:00:00 18.4 2 Nordeste 27 Nordeste 0 -- -- 53
2020-06-26 04:00:00 19.8 11 Norte 24 Norte 0 -- -- 47
2020-06-26 03:00:00 20.7 10 Norte 21 Norte 0 -- -- 45
2020-06-26 02:00:00 21.4 9 Norte 25 Nordeste 0 -- -- 46
2020-06-26 01:00:00 21.9 3 Este 15 Norte 0 -- -- 41
2020-06-26 00:00:00 22.8 8 Norte 22 Norte 0 -- -- 45
2020-06-25 23:00:00 23.5 12 Norte 27 Norte 0 -- -- 48
2020-06-25 22:00:00 26.4 5 Noroeste 19 Sudoeste 0 -- -- 42
2020-06-25 21:00:00 29.1 11 Sudoeste 22 Sudoeste 0 -- -- 36
2020-06-25 20:00:00 31.1 10 Sudoeste 22 Sudoeste 0 -- -- 33
2020-06-25 19:00:00 32.4 12 Sur 21 Sur 0 -- -- 30
2020-06-25 18:00:00 32.1 14 Sudoeste 30 Sudoeste 0 -- -- 30
2020-06-25 17:00:00 32.8 9 Sur 26 Sudoeste 0 -- -- 27
2020-06-25 16:00:00 31.9 13 Sudoeste 34 Oeste 0 -- -- 28
2020-06-25 15:00:00 31 7 Oeste 29 Sudoeste 0 -- -- 29
2020-06-25 14:00:00 30.4 12 Sudoeste 24 Oeste 0 -- -- 29
2020-06-25 13:00:00 29.6 13 Sudoeste 26 Oeste 0 -- -- 29
2020-06-25 12:00:00 28.3 6 Sur 15 Sudoeste 0 -- -- 39
2020-06-25 11:00:00 25.4 6 Sudeste 10 Sur 0 -- -- 52
2020-06-25 10:00:00 21.5 5 Este 9 Este 0 -- -- 64
2020-06-25 09:00:00 21.1 3 Sudeste 7 Sudoeste 0 -- -- 65
2020-06-25 08:00:00 18.7 0 Calma 6 Norte 0 -- -- 72
2020-06-25 07:00:00 18.3 5 Norte 6 Norte 0 -- -- 73
2020-06-25 06:00:00 20 3 Noroeste 8 Norte 0 -- -- 67
2020-06-25 05:00:00 19.9 2 Sudoeste 9 Norte 0 -- -- 65
2020-06-25 04:00:00 21.8 2 Sur 8 Nordeste 0 -- -- 59
2020-06-25 03:00:00 23.6 7 Nordeste 13 Norte 0 -- -- 54
2020-06-25 02:00:00 24.1 2 Sur 12 Nordeste 0 -- -- 50
2020-06-25 01:00:00 24.7 5 Norte 16 Noroeste 0 -- -- 43
2020-06-25 00:00:00 23.5 6 Norte 14 Norte 0 -- -- 53
2020-06-24 23:00:00 24.2 10 Norte 13 Norte 0 -- -- 50
2020-06-24 22:00:00 26.1 9 Norte 12 Oeste 0 -- -- 45
2020-06-24 21:00:00 30.5 8 Sudoeste 17 Oeste 0 -- -- 32
2020-06-24 20:00:00 32.4 8 Sudoeste 22 Sudoeste 0 -- -- 28
2020-06-24 19:00:00 33.1 14 Sudoeste 31 Sudoeste 0 -- -- 26
2020-06-24 18:00:00 33.4 15 Sudoeste 27 Sudoeste 0 -- -- 30
2020-06-24 17:00:00 34 10 Sur 24 Sudeste 0 -- -- 30
2020-06-24 16:00:00 33.6 13 Sudeste 22 Este 0 -- -- 33
2020-06-24 15:00:00 32.4 10 Sur 23 Sudeste 0 -- -- 36
2020-06-24 14:00:00 31.2 12 Sudeste 29 Sudeste 0 -- -- 39
2020-06-24 13:00:00 30.7 15 Sur 24 Sudeste 0 -- -- 43
2020-06-24 12:00:00 29.6 12 Sur 21 Sur 0 -- -- 43
2020-06-24 11:00:00 28.1 5 Sur 13 Sudeste 0 -- -- 46
2020-06-24 10:00:00 25.1 3 Sur 8 Sudoeste 0 -- -- 53
2020-06-24 09:00:00 21.4 0 Calma 5 Sur 0 -- -- 64
2020-06-24 08:00:00 23.5 3 Sudeste 12 Oeste 0 -- -- 55
2020-06-24 07:00:00 24.7 6 Oeste 8 Oeste 0 -- -- 47
2020-06-24 06:00:00 26.4 6 Nordeste 23 Nordeste 0 -- -- 43
2020-06-24 05:00:00 26.8 4 Norte 24 Norte 0 -- -- 41
2020-06-24 04:00:00 27.2 10 Norte 26 Norte 0 -- -- 41
2020-06-24 03:00:00 27.5 8 Nordeste 28 Norte 0 -- -- 44
2020-06-24 02:00:00 27.9 7 Norte 26 Norte 0 -- -- 44
2020-06-24 01:00:00 28.1 12 Norte 24 Norte 0 -- -- 46
2020-06-24 00:00:00 28.3 11 Norte 23 Norte 0 -- -- 49
2020-06-23 23:00:00 28.8 9 Norte 24 Norte 0 -- -- 42
2020-06-23 22:00:00 28.3 13 Norte 15 Noroeste 0 -- -- 37
2020-06-23 21:00:00 32.9 8 Norte 10 Norte 0 -- -- 35
2020-06-23 20:00:00 36.6 4 Noroeste 12 Norte 0 -- -- 22
2020-06-23 19:00:00 35.6 5 Nordeste 15 Sudeste 0 -- -- 22
2020-06-23 18:00:00 37.2 7 Este 19 Este 0 -- -- 21
2020-06-23 17:00:00 36.8 8 Este 28 Este 0 -- -- 21
2020-06-23 16:00:00 36.3 6 Este 23 Sudeste 0 -- -- 23
2020-06-23 15:00:00 35.5 8 Sudeste 23 Sudeste 0 -- -- 24
2020-06-23 14:00:00 34.8 14 Sudeste 24 Sudeste 0 -- -- 26
2020-06-23 13:00:00 33.5 14 Sudeste 23 Sudeste 0 -- -- 28
2020-06-23 12:00:00 32.4 10 Sudeste 23 Este 0 -- -- 29
2020-06-23 11:00:00 31.3 7 Este 21 Este 0 -- -- 31
2020-06-23 10:00:00 29.1 4 Sudoeste 12 Oeste 0 -- -- 35
2020-06-23 09:00:00 26 4 Oeste 15 Oeste 0 -- -- 37
2020-06-23 08:00:00 21.7 4 Nordeste 9 Nordeste 0 -- -- 49
2020-06-23 07:00:00 21.9 5 Norte 11 Norte 0 -- -- 42
2020-06-23 06:00:00 21.1 7 Norte 11 Norte 0 -- -- 45
2020-06-23 05:00:00 21.5 9 Norte 14 Norte 0 -- -- 44
2020-06-23 04:00:00 23.4 3 Noroeste 6 Noroeste 0 -- -- 39
2020-06-23 03:00:00 25.3 0 Calma 10 Norte 0 -- -- 37
2020-06-23 02:00:00 26.6 8 Norte 21 Norte 0 -- -- 37
2020-06-23 01:00:00 26.8 9 Norte 16 Nordeste 0 -- -- 30
2020-06-23 00:00:00 27 4 Norte 12 Norte 0 -- -- 31
2020-06-22 23:00:00 27.4 8 Norte 12 Norte 0 -- -- 31
2020-06-22 22:00:00 28.4 7 Noroeste 13 Noroeste 0 -- -- 32
2020-06-22 21:00:00 32.6 5 Norte 14 Nordeste 0 -- -- 31
2020-06-22 20:00:00 34.7 8 Este 16 Nordeste 0 -- -- 21
2020-06-22 19:00:00 35.2 6 Este 24 Nordeste 0 -- -- 21
2020-06-22 18:00:00 35.8 5 Este 24 Este 0 -- -- 20
2020-06-22 17:00:00 35.9 11 Sudeste 29 Este 0 -- -- 19
2020-06-22 16:00:00 35.5 12 Sudeste 29 Este 0 -- -- 20
2020-06-22 15:00:00 34.3 14 Este 29 Este 0 -- -- 22
2020-06-22 14:00:00 33.8 13 Sudeste 27 Sudeste 0 -- -- 24
2020-06-22 13:00:00 33.1 15 Sudeste 31 Sudeste 0 -- -- 28
2020-06-22 12:00:00 31.4 8 Sur 19 Sudeste 0 -- -- 32
2020-06-22 11:00:00 29.5 5 Sur 11 Sudeste 0 -- -- 35
2020-06-22 10:00:00 27.4 3 Sur 7 Sur 0 -- -- 43
2020-06-22 09:00:00 24.3 5 Sur 10 Norte 0 -- -- 52
2020-06-22 08:00:00 22.5 9 Norte 16 Norte 0 -- -- 51
2020-06-22 07:00:00 21.5 4 Nordeste 26 Nordeste 0 -- -- 56
2020-06-22 06:00:00 22.3 13 Nordeste 33 Nordeste 0 -- -- 56
2020-06-22 05:00:00 23.5 13 Norte 50 Nordeste 0 -- -- 51
2020-06-22 04:00:00 23.6 23 Nordeste 53 Nordeste 0 -- -- 52
2020-06-22 03:00:00 22.8 16 Norte 34 Norte 0 -- -- 56
2020-06-22 02:00:00 22.8 18 Norte 46 Norte 0 -- -- 59
2020-06-22 01:00:00 23.3 25 Norte 44 Norte 0 -- -- 59
2020-06-22 00:00:00 24.4 22 Norte 38 Norte 0 -- -- 54
2020-06-21 23:00:00 25 19 Norte 34 Norte 0 -- -- 50
2020-06-21 22:00:00 26.7 13 Norte 28 Norte 0 -- -- 42
2020-06-21 21:00:00 28.7 13 Norte 30 Norte 0 -- -- 35
2020-06-21 20:00:00 30.6 11 Norte 27 Norte 0 -- -- 30
2020-06-21 19:00:00 31.3 16 Norte 26 Norte 0 -- -- 24
2020-06-21 18:00:00 31.9 15 Norte 30 Nordeste 0 -- -- 23
2020-06-21 17:00:00 31.4 13 Norte 31 Norte 0 -- -- 23
2020-06-21 16:00:00 31 16 Norte 33 Norte 0 -- -- 26
2020-06-21 15:00:00 29.9 18 Norte 29 Norte 0 -- -- 30
2020-06-21 14:00:00 30 16 Nordeste 29 Norte 0 -- -- 31
2020-06-21 13:00:00 28.4 17 Norte 33 Nordeste 0 -- -- 32
2020-06-21 12:00:00 26.8 18 Norte 33 Noroeste 0 -- -- 31
2020-06-21 11:00:00 24.9 20 Norte 38 Norte 0 -- -- 37
2020-06-21 10:00:00 23.6 15 Norte 36 Norte 0 -- -- 33
2020-06-21 09:00:00 21.1 22 Nordeste 52 Nordeste 0 -- -- 38
2020-06-21 08:00:00 19.5 23 Nordeste 54 Nordeste 0 -- -- 45
2020-06-21 07:00:00 18 32 Nordeste 51 Nordeste 0 -- -- 53
2020-06-21 06:00:00 18.3 27 Nordeste 42 Este 0 -- -- 48
2020-06-21 05:00:00 18.8 15 Nordeste 32 Norte 0 -- -- 50
2020-06-21 04:00:00 19.4 13 Nordeste 35 Norte 0 -- -- 45
2020-06-21 03:00:00 19.4 8 Norte 30 Nordeste 0 -- -- 53
2020-06-21 02:00:00 19.8 8 Norte 31 Norte 0 -- -- 59
2020-06-21 01:00:00 20.3 14 Norte 34 Norte 0 -- -- 58
2020-06-21 00:00:00 21.3 15 Norte 35 Norte 0 -- -- 56
2020-06-20 23:00:00 22.6 17 Norte 31 Norte 0 -- -- 53
2020-06-20 22:00:00 24.6 17 Norte 30 Norte 0 -- -- 48
2020-06-20 21:00:00 27.3 13 Norte 24 Norte 0 -- -- 38
2020-06-20 20:00:00 31.3 3 Norte 20 Oeste 0 -- -- 22
2020-06-20 19:00:00 31.4 10 Sudoeste 24 Oeste 0 -- -- 22
2020-06-20 18:00:00 31.4 13 Sudoeste 24 Sudoeste 0 -- -- 21
2020-06-20 17:00:00 31.6 8 Oeste 24 Sudoeste 0 -- -- 23
2020-06-20 16:00:00 31.1 13 Sudoeste 28 Sudoeste 0 -- -- 25
2020-06-20 15:00:00 30.3 10 Sudoeste 22 Sudoeste 0 -- -- 30
2020-06-20 14:00:00 30 9 Sudeste 20 Sudeste 0 -- -- 30
2020-06-20 13:00:00 28.2 7 Sudeste 16 Sudeste 0 -- -- 34
2020-06-20 12:00:00 27.2 7 Este 13 Este 0 -- -- 36
2020-06-20 11:00:00 26 8 Este 26 Nordeste 0 -- -- 37
2020-06-20 10:00:00 24 13 Nordeste 25 Nordeste 0 -- -- 43
2020-06-20 09:00:00 22.1 9 Nordeste 26 Nordeste 0 -- -- 48
2020-06-20 08:00:00 18.7 4 Norte 12 Nordeste 0 -- -- 56
2020-06-20 07:00:00 17.7 3 Este 18 Nordeste 0 -- -- 58
2020-06-20 06:00:00 18.8 8 Este 30 Nordeste 0 -- -- 53
2020-06-20 05:00:00 19 15 Nordeste 34 Nordeste 0 -- -- 51
2020-06-20 04:00:00 18.9 6 Norte 27 Nordeste 0 -- -- 49
2020-06-20 03:00:00 19.6 9 Norte 28 Norte 0 -- -- 43
2020-06-20 02:00:00 19.9 13 Norte 32 Norte 0 -- -- 45
2020-06-20 01:00:00 20.1 15 Norte 28 Norte 0 -- -- 48
2020-06-20 00:00:00 20.8 16 Norte 32 Norte 0 -- -- 51
2020-06-19 23:00:00 21.8 21 Norte 37 Norte 0 -- -- 50
2020-06-19 22:00:00 23.3 14 Norte 27 Noroeste 0 -- -- 42
2020-06-19 21:00:00 25.7 12 Norte 26 Norte 0 -- -- 33
2020-06-19 20:00:00 28 16 Norte 27 Noroeste 0 -- -- 27
2020-06-19 19:00:00 29.2 15 Noroeste 32 Noroeste 0 -- -- 23
2020-06-19 18:00:00 30 12 Sur 26 Oeste 0 -- -- 22
2020-06-19 17:00:00 29.7 11 Sur 24 Sur 0 -- -- 24
2020-06-19 16:00:00 28.9 11 Sudoeste 21 Oeste 0 -- -- 27
2020-06-19 15:00:00 28 12 Sudoeste 24 Sur 0 -- -- 29
2020-06-19 14:00:00 27.6 6 Sudoeste 16 Sudoeste 0 -- -- 31
2020-06-19 13:00:00 26 10 Sur 20 Sur 0 -- -- 34
2020-06-19 12:00:00 24.8 5 Sudeste 14 Sudoeste 0 -- -- 39
2020-06-19 11:00:00 24 8 Este 18 Este 0 -- -- 43
2020-06-19 10:00:00 21.9 5 Nordeste 12 Nordeste 0 -- -- 49
2020-06-19 09:00:00 19 4 Sudeste 7 Este 0 -- -- 56
2020-06-19 08:00:00 15.6 4 Oeste 17 Nordeste 0 -- -- 67
2020-06-19 07:00:00 15.6 9 Nordeste 33 Nordeste 0 -- -- 65
2020-06-19 06:00:00 15.8 17 Nordeste 34 Nordeste 0 -- -- 64
2020-06-19 05:00:00 16.2 19 Norte 36 Noroeste 0 -- -- 60
2020-06-19 04:00:00 16.8 19 Norte 37 Norte 0 -- -- 55
2020-06-19 03:00:00 17.1 14 Norte 30 Norte 0 -- -- 55
2020-06-19 02:00:00 17 15 Norte 42 Norte 0 -- -- 56
2020-06-19 01:00:00 17.6 22 Norte 38 Norte 0 -- -- 58
2020-06-19 00:00:00 18.4 23 Norte 39 Norte 0 -- -- 56
2020-06-18 23:00:00 19.7 23 Norte 43 Norte 0 -- -- 54
2020-06-18 22:00:00 21.5 18 Norte 34 Norte 0 -- -- 46
2020-06-18 21:00:00 23.6 17 Norte 32 Norte 0 -- -- 40
2020-06-18 20:00:00 26.1 13 Norte 24 Norte 0 -- -- 36
2020-06-18 19:00:00 27.4 12 Noroeste 29 Norte 0 -- -- 32
2020-06-18 18:00:00 26.3 11 Noroeste 26 Noroeste 0 -- -- 33
2020-06-18 17:00:00 27.7 12 Noroeste 25 Oeste 0 -- -- 31
2020-06-18 16:00:00 27.2 7 Norte 22 Norte 0 -- -- 33
2020-06-18 15:00:00 26.1 11 Norte 20 Norte 0 -- -- 35
2020-06-18 14:00:00 26.2 7 Este 22 Este 0 -- -- 35
2020-06-18 13:00:00 25.1 6 Nordeste 20 Norte 0 -- -- 37
2020-06-18 12:00:00 23.8 6 Norte 13 Norte 0 -- -- 42
2020-06-18 11:00:00 22.1 2 Este 21 Nordeste 0 -- -- 45
2020-06-18 10:00:00 20.6 12 Nordeste 26 Nordeste 0 -- -- 50
2020-06-18 09:00:00 18.4 13 Nordeste 26 Nordeste 0 -- -- 55
2020-06-18 08:00:00 16.2 16 Nordeste 37 Nordeste 0 -- -- 62
2020-06-18 07:00:00 14.8 7 Norte 19 Norte 0 -- -- 65
2020-06-18 06:00:00 15.1 6 Norte 26 Nordeste 0 -- -- 65
2020-06-18 05:00:00 15.5 5 Norte 27 Nordeste 0 -- -- 65
2020-06-18 04:00:00 16.1 9 Norte 20 Nordeste 0 -- -- 63
2020-06-18 03:00:00 16.5 10 Nordeste 23 Nordeste 0 -- -- 61
2020-06-18 02:00:00 16.8 13 Norte 34 Noroeste 0 -- -- 63
2020-06-18 01:00:00 17.5 19 Norte 36 Norte 0 -- -- 61
2020-06-18 00:00:00 18 16 Norte 35 Noroeste 0 -- -- 58
2020-06-17 23:00:00 19 19 Norte 37 Norte 0 -- -- 54
2020-06-17 22:00:00 20.3 17 Norte 30 Norte 0 -- -- 49
2020-06-17 21:00:00 22.4 7 Norte 18 Norte 0 -- -- 41
2020-06-17 20:00:00 24.8 10 Norte 24 Norte 0 -- -- 34
2020-06-17 19:00:00 26.2 9 Nordeste 24 Nordeste 0 -- -- 32
2020-06-17 18:00:00 26.1 7 Sudoeste 19 Sudoeste 0 -- -- 34
2020-06-17 17:00:00 26.2 8 Sudoeste 43 Norte 0 -- -- 33
2020-06-17 16:00:00 24.9 9 Este 21 Este 0 -- -- 36
2020-06-17 15:00:00 24.1 8 Oeste 18 Este 0 -- -- 37
2020-06-17 14:00:00 23.7 9 Nordeste 21 Nordeste 0 -- -- 37
2020-06-17 13:00:00 21.9 6 Este 21 Este 0 -- -- 42
2020-06-17 12:00:00 20.4 4 Oeste 27 Nordeste 0 -- -- 46
2020-06-17 11:00:00 19.3 14 Nordeste 32 Nordeste 0 -- -- 50
2020-06-17 10:00:00 17.3 20 Nordeste 37 Norte 0 -- -- 56
2020-06-17 09:00:00 15.4 16 Norte 35 Norte 0 -- -- 62
2020-06-17 08:00:00 12.7 16 Norte 35 Norte 0 -- -- 72
2020-06-17 07:00:00 11.9 13 Norte 33 Norte 0 -- -- 73
2020-06-17 06:00:00 12.1 13 Norte 32 Norte 0 -- -- 72
2020-06-17 05:00:00 12.5 12 Norte 28 Norte 0 -- -- 71
2020-06-17 04:00:00 12.8 14 Norte 30 Norte 0 -- -- 71
2020-06-17 03:00:00 13.1 6 Norte 31 Nordeste 0 -- -- 68
2020-06-17 02:00:00 14 12 Norte 33 Norte 0 -- -- 64
2020-06-17 01:00:00 14.7 9 Noroeste 28 Nordeste 0 -- -- 63
2020-06-17 00:00:00 15.3 6 Norte 25 Oeste 0 -- -- 62
2020-06-16 23:00:00 16.8 14 Noroeste 34 Oeste 0 -- -- 59
2020-06-16 22:00:00 18.5 10 Noroeste 22 Noroeste 0 -- -- 54
2020-06-16 21:00:00 21.2 10 Oeste 27 Noroeste 0 -- -- 46
2020-06-16 20:00:00 23.4 17 Oeste 30 Oeste 0 -- -- 39
2020-06-16 19:00:00 24.5 16 Oeste 30 Oeste 0 -- -- 36
2020-06-16 18:00:00 23.6 16 Noroeste 32 Noroeste 0 -- -- 43
2020-06-16 17:00:00 24.7 17 Noroeste 33 Noroeste 0 -- -- 42
2020-06-16 16:00:00 24.2 17 Noroeste 29 Norte 0 -- -- 44
2020-06-16 15:00:00 24.4 10 Noroeste 22 Noroeste 0 -- -- 43
2020-06-16 14:00:00 23.1 7 Oeste 25 Oeste 0 -- -- 44
2020-06-16 13:00:00 22.7 5 Sudoeste 19 Noroeste 0 -- -- 45
2020-06-16 12:00:00 23.1 6 Sudoeste 13 Sur 0 -- -- 45
2020-06-16 11:00:00 20.7 5 Sudoeste 13 Sudeste 0 -- -- 50
2020-06-16 10:00:00 18.4 5 Sudeste 19 Norte 0 -- -- 60
2020-06-16 09:00:00 16.8 15 Norte 34 Nordeste 0 -- -- 61
2020-06-16 08:00:00 14.9 18 Nordeste 30 Nordeste 0 -- -- 71
2020-06-16 07:00:00 14.3 7 Noroeste 17 Norte 0.4 -- -- 76
2020-06-16 06:00:00 15.5 12 Norte 24 Norte 0 -- -- 66
2020-06-16 05:00:00 15.8 3 Nordeste 30 Este 0 -- -- 63
2020-06-16 04:00:00 16.1 13 Este 25 Este 0 -- -- 61
2020-06-16 03:00:00 15.8 5 Sur 29 Norte 0 -- -- 64
2020-06-16 02:00:00 16.4 14 Norte 35 Norte 0 -- -- 61
2020-06-16 01:00:00 16.9 19 Norte 41 Norte 0 -- -- 63
2020-06-16 00:00:00 17.4 17 Norte 33 Norte 0 -- -- 61
2020-06-15 23:00:00 17.7 16 Norte 36 Norte 0 -- -- 59
2020-06-15 22:00:00 18.4 15 Norte 36 Norte 0 -- -- 58
2020-06-15 21:00:00 20.6 18 Norte 35 Norte 0 -- -- 50
2020-06-15 20:00:00 22.2 18 Norte 33 Noroeste 0 -- -- 47
2020-06-15 19:00:00 23.8 15 Norte 26 Norte 0 -- -- 43
2020-06-15 18:00:00 25.2 12 Norte 22 Noroeste 0 -- -- 41
2020-06-15 17:00:00 24.3 8 Norte 22 Norte 0 -- -- 39
2020-06-15 16:00:00 25.3 7 Noroeste 17 Noroeste 0 -- -- 38
2020-06-15 15:00:00 24.5 7 Noroeste 19 Sudoeste 0 -- -- 40
2020-06-15 14:00:00 23.8 4 Sudoeste 18 Este 0 -- -- 43
2020-06-15 13:00:00 23.2 8 Este 20 Norte 0 -- -- 44
2020-06-15 12:00:00 21.1 9 Noroeste 24 Noroeste 0 -- -- 50
2020-06-15 11:00:00 20.9 9 Nordeste 26 Norte 0 -- -- 48
2020-06-15 10:00:00 19.4 11 Nordeste 30 Nordeste 0 -- -- 55
2020-06-15 09:00:00 17.8 9 Nordeste 23 Norte 0 -- -- 60
2020-06-15 08:00:00 14.6 12 Nordeste 25 Nordeste 0 -- -- 71
2020-06-15 07:00:00 14.1 8 Norte 18 Noroeste 0 -- -- 73
2020-06-15 06:00:00 14 6 Norte 14 Nordeste 0 -- -- 74
2020-06-15 05:00:00 14.3 3 Nordeste 16 Nordeste 0 -- -- 71
2020-06-15 04:00:00 14.7 7 Norte 27 Nordeste 0 -- -- 70
2020-06-15 03:00:00 15.2 8 Norte 28 Norte 0 -- -- 68
2020-06-15 02:00:00 15.5 11 Norte 30 Norte 0 -- -- 66
2020-06-15 01:00:00 15.7 13 Norte 38 Norte 0 -- -- 67
2020-06-15 00:00:00 16.2 16 Norte 40 Norte 0 -- -- 66
2020-06-14 23:00:00 16.8 17 Norte 42 Norte 0 -- -- 64
2020-06-14 22:00:00 17.8 18 Norte 34 Norte 0 -- -- 59
2020-06-14 21:00:00 20.2 12 Norte 29 Norte 0 -- -- 51
2020-06-14 20:00:00 23 14 Norte 25 Noroeste 0 -- -- 43
2020-06-14 19:00:00 23.6 13 Noroeste 21 Noroeste 0 -- -- 42
2020-06-14 18:00:00 24.8 5 Norte 16 Norte 0 -- -- 37
2020-06-14 17:00:00 24.2 6 Noroeste 18 Sur 0 -- -- 39
2020-06-14 16:00:00 23.6 11 Sur 24 Sudeste 0 -- -- 38
2020-06-14 15:00:00 23.5 8 Sudoeste 22 Oeste 0 -- -- 37
2020-06-14 14:00:00 22.9 10 Oeste 23 Oeste 0 -- -- 39
2020-06-14 13:00:00 22.3 7 Oeste 21 Sur 0 -- -- 38
2020-06-14 12:00:00 20.3 8 Oeste 16 Sudoeste 0 -- -- 44
2020-06-14 11:00:00 19.7 4 Sudeste 10 Sur 0 -- -- 46
2020-06-14 10:00:00 18.2 2 Sudeste 6 Sudeste 0 -- -- 54
2020-06-14 09:00:00 15.3 0 Calma 4 Sur 0 -- -- 65
2020-06-14 08:00:00 11.9 3 Noroeste 5 Noroeste 0 -- -- 72
2020-06-14 07:00:00 12.1 2 Nordeste 8 Norte 0 -- -- 69
2020-06-14 06:00:00 13.2 3 Sur 27 Norte 0 -- -- 67
2020-06-14 05:00:00 14.2 15 Nordeste 27 Este 0 -- -- 63
2020-06-14 04:00:00 13.7 3 Sur 26 Nordeste 0 -- -- 66
2020-06-14 03:00:00 14.1 14 Norte 25 Norte 0 -- -- 66
2020-06-14 02:00:00 14.3 14 Norte 30 Norte 0 -- -- 67
2020-06-14 01:00:00 14.5 15 Norte 27 Norte 0 -- -- 66
2020-06-14 00:00:00 14.1 4 Nordeste 13 Norte 0 -- -- 63
2020-06-13 23:00:00 14.7 6 Norte 11 Noroeste 0 -- -- 64
2020-06-13 22:00:00 17 6 Noroeste 14 Noroeste 0 -- -- 58
2020-06-13 21:00:00 19.4 11 Noroeste 21 Noroeste 0 -- -- 49
2020-06-13 20:00:00 19.6 9 Oeste 23 Oeste 0 -- -- 49
2020-06-13 19:00:00 20.2 11 Oeste 25 Oeste 0 -- -- 48
2020-06-13 18:00:00 21.5 6 Oeste 26 Sudoeste 0 -- -- 40
2020-06-13 17:00:00 21.4 13 Sudoeste 25 Sur 0 -- -- 40
2020-06-13 16:00:00 21.8 7 Oeste 26 Sur 0 -- -- 38
2020-06-13 15:00:00 20.2 10 Oeste 18 Oeste 0 -- -- 45
2020-06-13 14:00:00 19.8 5 Sur 11 Sur 0 -- -- 46
2020-06-13 13:00:00 18.7 5 Oeste 13 Sudoeste 0 -- -- 50
2020-06-13 12:00:00 17.2 3 Noroeste 13 Sur 0 -- -- 56
2020-06-13 11:00:00 17.2 8 Sur 14 Sudeste 0 -- -- 56
2020-06-13 10:00:00 15.6 5 Sur 9 Sur 0 -- -- 66
2020-06-13 09:00:00 13.5 3 Sudoeste 6 Sur 0 -- -- 77
2020-06-13 08:00:00 9.6 3 Nordeste 9 Norte 0 -- -- 91
2020-06-13 07:00:00 8.2 5 Norte 8 Norte 0 -- -- 94
2020-06-13 06:00:00 8 3 Noroeste 11 Norte 0 -- -- 94
2020-06-13 05:00:00 8.7 0 Calma 5 Norte 0 -- -- 92
2020-06-13 04:00:00 9.4 0 Calma 8 Norte 0 -- -- 89
2020-06-13 03:00:00 9.3 3 Noroeste 15 Norte 0 -- -- 90
2020-06-13 02:00:00 9.1 3 Norte 10 Norte 0 -- -- 88
2020-06-13 01:00:00 9.3 4 Noroeste 6 Norte 0 -- -- 87
2020-06-13 00:00:00 10.4 3 Noroeste 12 Norte 0 -- -- 83
2020-06-12 23:00:00 11.3 7 Noroeste 12 Norte 0 -- -- 81
2020-06-12 22:00:00 13.9 4 Noroeste 19 Oeste 0 -- -- 69
2020-06-12 21:00:00 16.5 8 Noroeste 24 Oeste 0 -- -- 58
2020-06-12 20:00:00 16.3 6 Oeste 27 Oeste 0 -- -- 62
2020-06-12 19:00:00 16.7 20 Oeste 37 Oeste 0 -- -- 62
2020-06-12 18:00:00 18.2 14 Oeste 36 Oeste 0 -- -- 50
2020-06-12 17:00:00 18.9 20 Oeste 42 Oeste 0 -- -- 50
2020-06-12 16:00:00 20.2 21 Sudoeste 38 Sudoeste 0 -- -- 45
2020-06-12 15:00:00 18.3 18 Oeste 33 Oeste 0 -- -- 51
2020-06-12 14:00:00 17 11 Oeste 24 Oeste 0 -- -- 59
2020-06-12 13:00:00 15.2 7 Oeste 14 Oeste 0 -- -- 67
2020-06-12 12:00:00 14.5 5 Noroeste 17 Sudoeste 0 -- -- 74
2020-06-12 11:00:00 12.6 7 Sudoeste 19 Oeste 0 -- -- 85
2020-06-12 10:00:00 12.4 3 Noroeste 10 Sudoeste 0 -- -- 79
2020-06-12 09:00:00 11.3 5 Sudoeste 11 Oeste 0 -- -- 80
2020-06-12 08:00:00 10.3 3 Noroeste 8 Oeste 0 -- -- 81
2020-06-12 07:00:00 9.2 2 Norte 10 Norte 0 -- -- 83
2020-06-12 06:00:00 8.5 6 Norte 8 Norte 0 -- -- 83
2020-06-12 05:00:00 9.2 0 Calma 7 Este 0 -- -- 79
2020-06-12 04:00:00 9 4 Nordeste 9 Oeste 0 -- -- 78
2020-06-12 03:00:00 10.5 4 Oeste 8 Sur 0 -- -- 70
2020-06-12 02:00:00 11.1 3 Oeste 8 Noroeste 0 -- -- 67
2020-06-12 01:00:00 10.6 3 Noroeste 15 Oeste 0 -- -- 66
2020-06-12 00:00:00 11.9 8 Oeste 28 Oeste 0 -- -- 60